Time;durP1;ratioP1;P1;durP2;ratioP2;P2;SDS_P1;SDS_P2;PMS_P1;PMS_P2;Temp;Humidity;BMP_temperature;BMP_pressure;BME280_temperature;BME280_humidity;BME280_pressure;Samples;Min_cycle;Max_cycle;Signal;HPM_P1;HPM_P2
2023/01/21 00:00:38;;;;;;;58.75;19.77;;;;;;;;;;6304919;22;20023;-83
2023/01/21 00:03:04;;;;;;;56.83;19.73;;;;;;;;;;6304360;22;20544;-83
2023/01/21 00:05:31;;;;;;;55.65;19.15;;;;;;;;;;6304107;22;20034;-84
2023/01/21 00:08:09;;;;;;;51.92;19.05;;;;;;;;;;6305216;22;20493;-83
2023/01/21 00:10:54;;;;;;;58.72;19.42;;;;;;;;;;6304502;22;20030;-83
2023/01/21 00:13:21;;;;;;;49.15;18.85;;;;;;;;;;6304585;22;20028;-84
2023/01/21 00:15:47;;;;;;;55.53;18.20;;;;;;;;;;6302961;22;20020;-83
2023/01/21 00:18:16;;;;;;;49.92;18.48;;;;;;;;;;6305948;22;21163;-84
2023/01/21 00:20:44;;;;;;;48.45;17.30;;;;;;;;;;6312541;22;20193;-84
2023/01/21 00:23:10;;;;;;;45.75;18.13;;;;;;;;;;6311035;22;20024;-84
2023/01/21 00:25:39;;;;;;;57.97;19.23;;;;;;;;;;6312838;22;20032;-84
2023/01/21 00:28:06;;;;;;;54.83;20.13;;;;;;;;;;6312715;22;20496;-84
2023/01/21 00:30:32;;;;;;;49.60;17.13;;;;;;;;;;6312022;22;20024;-84
2023/01/21 00:32:59;;;;;;;50.38;18.42;;;;;;;;;;6310951;22;20479;-84
2023/01/21 00:35:26;;;;;;;50.03;18.30;;;;;;;;;;6312331;22;20027;-84
2023/01/21 00:37:52;;;;;;;50.08;18.65;;;;;;;;;;6309543;22;20023;-85
2023/01/21 00:40:19;;;;;;;50.20;18.50;;;;;;;;;;6312369;22;20030;-85
2023/01/21 00:42:47;;;;;;;47.60;16.88;;;;;;;;;;6312708;22;20018;-85
2023/01/21 00:45:13;;;;;;;50.38;17.90;;;;;;;;;;6311793;22;20546;-84
2023/01/21 00:47:39;;;;;;;49.35;17.00;;;;;;;;;;6309098;22;20551;-84
2023/01/21 00:50:07;;;;;;;46.28;16.45;;;;;;;;;;6307912;22;20127;-85
2023/01/21 00:52:34;;;;;;;50.25;17.73;;;;;;;;;;6308420;22;20086;-85
2023/01/21 00:55:02;;;;;;;40.53;17.05;;;;;;;;;;6307718;22;20071;-85
2023/01/21 00:57:28;;;;;;;46.88;17.23;;;;;;;;;;6309935;22;20118;-85
2023/01/21 00:59:58;;;;;;;48.60;17.10;;;;;;;;;;6310021;22;20012;-85
2023/01/21 01:02:24;;;;;;;43.17;16.60;;;;;;;;;;6308299;22;20024;-85
2023/01/21 01:04:50;;;;;;;49.78;17.92;;;;;;;;;;6311449;22;20024;-84
2023/01/21 01:07:17;;;;;;;50.25;17.20;;;;;;;;;;6310497;22;20131;-85
2023/01/21 01:09:43;;;;;;;51.42;17.48;;;;;;;;;;6311068;22;20438;-85
2023/01/21 01:12:13;;;;;;;51.38;17.48;;;;;;;;;;6308871;22;20129;-85
2023/01/21 01:14:39;;;;;;;43.55;16.70;;;;;;;;;;6308162;22;20106;-84
2023/01/21 01:17:06;;;;;;;45.10;16.08;;;;;;;;;;6310115;22;20082;-84
2023/01/21 01:19:32;;;;;;;46.28;16.67;;;;;;;;;;6308226;22;20027;-85
2023/01/21 01:21:58;;;;;;;41.78;15.50;;;;;;;;;;6308466;22;20547;-85
2023/01/21 01:24:34;;;;;;;45.47;16.80;;;;;;;;;;6308342;22;20039;-85
2023/01/21 01:27:00;;;;;;;46.75;17.00;;;;;;;;;;6307970;22;20095;-85
2023/01/21 01:29:27;;;;;;;45.30;15.65;;;;;;;;;;6308127;22;20018;-84
2023/01/21 01:31:53;;;;;;;47.83;15.45;;;;;;;;;;6281075;22;20039;-84
2023/01/21 01:34:20;;;;;;;42.72;15.70;;;;;;;;;;6308936;22;20028;-84
2023/01/21 01:36:47;;;;;;;49.17;15.68;;;;;;;;;;6307879;22;20019;-85
2023/01/21 01:39:13;;;;;;;45.33;17.08;;;;;;;;;;6307642;22;20071;-84
2023/01/21 01:41:40;;;;;;;44.35;14.55;;;;;;;;;;6307648;22;20055;-85
2023/01/21 01:44:25;;;;;;;43.95;16.35;;;;;;;;;;6308530;22;20035;-84
2023/01/21 01:46:52;;;;;;;45.38;16.88;;;;;;;;;;6307960;22;20035;-84
2023/01/21 01:49:19;;;;;;;36.78;15.05;;;;;;;;;;6306098;22;20047;-85
2023/01/21 01:51:48;;;;;;;41.25;15.52;;;;;;;;;;6307875;22;20019;-84
2023/01/21 01:54:18;;;;;;;51.03;17.40;;;;;;;;;;6307721;22;20028;-85
2023/01/21 01:56:46;;;;;;;41.42;15.23;;;;;;;;;;6307287;22;20468;-84
2023/01/21 01:59:13;;;;;;;43.75;14.38;;;;;;;;;;6307009;22;20516;-85
2023/01/21 02:01:39;;;;;;;44.67;14.27;;;;;;;;;;6306446;22;20102;-84
2023/01/21 02:04:08;;;;;;;47.53;16.90;;;;;;;;;;6307565;22;20019;-85
2023/01/21 02:06:35;;;;;;;39.65;15.75;;;;;;;;;;6307600;22;20412;-85
2023/01/21 02:09:02;;;;;;;43.80;15.55;;;;;;;;;;6307540;22;20086;-85
2023/01/21 02:11:29;;;;;;;36.10;14.05;;;;;;;;;;6278746;22;20240;-85
2023/01/21 02:13:58;;;;;;;40.55;13.50;;;;;;;;;;6307067;22;20110;-85
2023/01/21 02:16:36;;;;;;;38.08;15.48;;;;;;;;;;6306936;22;20019;-84
2023/01/21 02:19:08;;;;;;;44.05;15.70;;;;;;;;;;6305997;22;20028;-85
2023/01/21 02:21:46;;;;;;;44.40;14.68;;;;;;;;;;6304200;22;20565;-85
2023/01/21 02:24:16;;;;;;;41.30;15.40;;;;;;;;;;6306207;22;20027;-84
2023/01/21 02:27:01;;;;;;;46.58;15.05;;;;;;;;;;6303919;22;20492;-84
2023/01/21 02:29:42;;;;;;;40.22;15.32;;;;;;;;;;6304617;22;20028;-85
2023/01/21 02:32:15;;;;;;;35.83;13.68;;;;;;;;;;6305691;22;20748;-84
2023/01/21 02:35:01;;;;;;;39.72;15.23;;;;;;;;;;6305567;22;20368;-84
2023/01/21 02:37:37;;;;;;;44.95;15.73;;;;;;;;;;6304832;22;20567;-84
2023/01/21 02:40:22;;;;;;;42.80;15.55;;;;;;;;;;6303802;22;20106;-84
2023/01/21 02:42:54;;;;;;;42.10;13.60;;;;;;;;;;6305146;22;20255;-84
2023/01/21 02:45:23;;;;;;;45.30;15.52;;;;;;;;;;6305812;22;20059;-85
2023/01/21 02:47:54;;;;;;;41.97;14.38;;;;;;;;;;6305786;22;20129;-85
2023/01/21 02:50:25;;;;;;;43.40;15.73;;;;;;;;;;6305816;22;20026;-84
2023/01/21 02:52:55;;;;;;;45.35;15.38;;;;;;;;;;6303978;22;20024;-85
2023/01/21 02:55:25;;;;;;;43.33;16.00;;;;;;;;;;6303411;22;20103;-84
2023/01/21 02:57:54;;;;;;;36.58;14.05;;;;;;;;;;6301780;22;20020;-86
2023/01/21 03:00:30;;;;;;;42.00;15.07;;;;;;;;;;6306130;22;20081;-85
2023/01/21 03:02:56;;;;;;;43.90;14.35;;;;;;;;;;6305834;22;20102;-85
2023/01/21 03:05:26;;;;;;;40.40;15.52;;;;;;;;;;6305882;22;20042;-86
2023/01/21 03:07:55;;;;;;;42.90;15.10;;;;;;;;;;6305111;22;20070;-84
2023/01/21 03:10:30;;;;;;;36.83;13.93;;;;;;;;;;6306151;22;20024;-85
2023/01/21 03:13:02;;;;;;;45.03;14.68;;;;;;;;;;6305124;22;20519;-84
2023/01/21 03:18:18;;;;;;;42.45;14.65;;;;;;;;;;6305458;22;20062;-85
2023/01/21 03:20:48;;;;;;;47.30;16.55;;;;;;;;;;6305133;22;20031;-84
2023/01/21 03:23:23;;;;;;;42.60;14.75;;;;;;;;;;6305816;22;20103;-84
2023/01/21 03:25:49;;;;;;;42.40;14.63;;;;;;;;;;6303319;22;20028;-85
2023/01/21 03:28:18;;;;;;;41.28;14.68;;;;;;;;;;6304683;22;20032;-84
2023/01/21 03:30:46;;;;;;;42.03;16.20;;;;;;;;;;6304861;22;20012;-84
2023/01/21 03:33:14;;;;;;;36.33;13.95;;;;;;;;;;6305360;22;20480;-84
2023/01/21 03:35:42;;;;;;;40.88;15.15;;;;;;;;;;6304944;22;20978;-85
2023/01/21 03:38:09;;;;;;;38.25;14.18;;;;;;;;;;6304298;22;20109;-84
2023/01/21 03:40:38;;;;;;;38.47;14.52;;;;;;;;;;6303021;22;20114;-86
2023/01/21 03:43:04;;;;;;;43.30;14.18;;;;;;;;;;6304780;22;20059;-84
2023/01/21 03:45:31;;;;;;;41.95;15.50;;;;;;;;;;6304531;22;20020;-84
2023/01/21 03:47:59;;;;;;;37.33;14.88;;;;;;;;;;6304545;22;20031;-84
2023/01/21 03:50:29;;;;;;;41.30;14.68;;;;;;;;;;6304834;22;20023;-84
2023/01/21 03:52:57;;;;;;;43.45;14.75;;;;;;;;;;6304702;22;20051;-85
2023/01/21 03:55:24;;;;;;;44.67;15.27;;;;;;;;;;6304245;22;20064;-84
2023/01/21 03:57:50;;;;;;;39.15;14.70;;;;;;;;;;6305225;22;20031;-86
2023/01/21 04:00:17;;;;;;;43.13;15.23;;;;;;;;;;6303991;22;20134;-85
2023/01/21 04:02:44;;;;;;;39.55;14.10;;;;;;;;;;6305607;22;20491;-84
2023/01/21 04:05:10;;;;;;;43.97;14.38;;;;;;;;;;6304541;22;20018;-86
2023/01/21 04:07:36;;;;;;;40.65;13.90;;;;;;;;;;6303367;22;20486;-84
2023/01/21 04:10:03;;;;;;;42.58;15.25;;;;;;;;;;6304699;22;20028;-84
2023/01/21 04:12:29;;;;;;;45.15;14.80;;;;;;;;;;6305264;22;20027;-86
2023/01/21 04:14:57;;;;;;;43.83;14.10;;;;;;;;;;6303982;22;20031;-85
2023/01/21 04:17:23;;;;;;;38.90;14.80;;;;;;;;;;6302999;22;20023;-84
2023/01/21 04:19:49;;;;;;;41.08;15.18;;;;;;;;;;6304762;22;20431;-83
2023/01/21 04:22:16;;;;;;;36.60;13.10;;;;;;;;;;6277564;22;20051;-86
2023/01/21 04:24:42;;;;;;;43.60;15.35;;;;;;;;;;6304224;22;20126;-84
2023/01/21 04:27:08;;;;;;;45.92;15.30;;;;;;;;;;6304915;22;20495;-85
2023/01/21 04:29:35;;;;;;;37.13;14.25;;;;;;;;;;6304473;22;20046;-84
2023/01/21 04:32:01;;;;;;;48.38;15.07;;;;;;;;;;6305423;22;20518;-84
2023/01/21 04:34:28;;;;;;;46.47;15.32;;;;;;;;;;6304451;22;20031;-84
2023/01/21 04:36:54;;;;;;;41.90;14.43;;;;;;;;;;6304787;22;20118;-83
2023/01/21 04:39:21;;;;;;;43.10;14.77;;;;;;;;;;6305166;22;20451;-85
2023/01/21 04:41:47;;;;;;;46.60;16.40;;;;;;;;;;6306652;22;20027;-85
2023/01/21 04:44:13;;;;;;;40.53;14.07;;;;;;;;;;6304854;22;20123;-85
2023/01/21 04:46:40;;;;;;;48.80;15.63;;;;;;;;;;6304459;22;20028;-83
2023/01/21 04:49:06;;;;;;;45.75;15.27;;;;;;;;;;6305842;22;20847;-84
2023/01/21 04:51:35;;;;;;;43.50;15.63;;;;;;;;;;6306539;22;20054;-83
2023/01/21 04:54:01;;;;;;;42.78;15.43;;;;;;;;;;6304348;22;20103;-84
2023/01/21 04:56:28;;;;;;;45.33;15.50;;;;;;;;;;6305289;22;20030;-84
2023/01/21 04:58:54;;;;;;;43.15;14.68;;;;;;;;;;6303504;22;20110;-84
2023/01/21 05:01:20;;;;;;;45.28;15.10;;;;;;;;;;6303807;22;20531;-84
2023/01/21 05:03:47;;;;;;;46.00;14.40;;;;;;;;;;6304977;22;20020;-83
2023/01/21 05:06:13;;;;;;;47.53;15.98;;;;;;;;;;6304731;22;20034;-84
2023/01/21 05:08:40;;;;;;;46.13;15.13;;;;;;;;;;6306702;22;20027;-83
2023/01/21 05:11:07;;;;;;;42.95;14.52;;;;;;;;;;6306573;22;20330;-83
2023/01/21 05:13:34;;;;;;;43.65;16.15;;;;;;;;;;6303962;22;20028;-83
2023/01/21 05:16:04;;;;;;;46.70;16.00;;;;;;;;;;6304905;22;20020;-83
2023/01/21 05:18:30;;;;;;;45.17;14.68;;;;;;;;;;6304894;22;20016;-84
2023/01/21 05:20:56;;;;;;;46.47;15.30;;;;;;;;;;6303865;22;20034;-84
2023/01/21 05:23:23;;;;;;;40.75;14.60;;;;;;;;;;6303724;22;20024;-83
2023/01/21 05:25:50;;;;;;;46.17;14.82;;;;;;;;;;6304584;22;20705;-84
2023/01/21 05:28:16;;;;;;;42.72;14.68;;;;;;;;;;6304678;22;20024;-84
2023/01/21 05:30:42;;;;;;;44.88;15.52;;;;;;;;;;6304484;22;20054;-84
2023/01/21 05:33:10;;;;;;;48.00;14.82;;;;;;;;;;6303607;22;20055;-84
2023/01/21 05:35:36;;;;;;;46.75;16.10;;;;;;;;;;6303675;22;20990;-83
2023/01/21 05:38:02;;;;;;;40.28;14.80;;;;;;;;;;6302023;22;20028;-84
2023/01/21 05:40:29;;;;;;;46.85;16.58;;;;;;;;;;6302749;22;20066;-84
2023/01/21 05:42:59;;;;;;;46.45;16.02;;;;;;;;;;6277321;22;20432;-85
2023/01/21 05:45:25;;;;;;;48.00;15.65;;;;;;;;;;6302128;22;20759;-84
2023/01/21 05:47:52;;;;;;;46.38;15.70;;;;;;;;;;6303607;22;20055;-84
2023/01/21 05:50:18;;;;;;;44.92;15.38;;;;;;;;;;6300946;22;20020;-85
2023/01/21 05:52:45;;;;;;;47.00;16.05;;;;;;;;;;6303636;22;20028;-84
2023/01/21 05:55:11;;;;;;;43.53;15.75;;;;;;;;;;6307807;22;20494;-84
2023/01/21 05:57:40;;;;;;;47.10;14.95;;;;;;;;;;6301445;22;20054;-84
2023/01/21 06:00:07;;;;;;;46.50;16.77;;;;;;;;;;6303877;22;20024;-84
2023/01/21 06:02:33;;;;;;;52.83;16.67;;;;;;;;;;6304128;22;20027;-84
2023/01/21 06:05:00;;;;;;;47.92;15.13;;;;;;;;;;6302259;22;20024;-84
2023/01/21 06:07:26;;;;;;;56.72;17.80;;;;;;;;;;6303176;22;20074;-83
2023/01/21 06:09:53;;;;;;;53.63;17.10;;;;;;;;;;6304746;22;20459;-84
2023/01/21 06:12:19;;;;;;;53.92;17.42;;;;;;;;;;6303876;22;20028;-83
2023/01/21 06:14:45;;;;;;;65.20;20.52;;;;;;;;;;6302207;22;20453;-84
2023/01/21 06:17:12;;;;;;;73.68;19.15;;;;;;;;;;6303303;22;20083;-84
2023/01/21 06:19:38;;;;;;;60.92;19.55;;;;;;;;;;6303322;22;20028;-85
2023/01/21 06:22:04;;;;;;;60.13;19.35;;;;;;;;;;6303762;22;20030;-84
2023/01/21 06:24:31;;;;;;;61.60;19.02;;;;;;;;;;6305103;22;20028;-83
2023/01/21 06:26:57;;;;;;;69.60;19.55;;;;;;;;;;6303653;22;20110;-83
2023/01/21 06:29:23;;;;;;;66.82;17.55;;;;;;;;;;6302206;22;20024;-83
2023/01/21 06:31:50;;;;;;;81.82;19.45;;;;;;;;;;6304401;22;20024;-83
2023/01/21 06:34:16;;;;;;;74.85;20.60;;;;;;;;;;6302498;22;20459;-83
2023/01/21 06:36:43;;;;;;;74.10;18.95;;;;;;;;;;6276783;22;20035;-83
2023/01/21 06:39:09;;;;;;;74.18;20.25;;;;;;;;;;6276540;22;20028;-84
2023/01/21 06:41:36;;;;;;;79.68;20.60;;;;;;;;;;6303050;22;20023;-83
2023/01/21 06:44:03;;;;;;;84.45;20.10;;;;;;;;;;6303057;22;20024;-83
2023/01/21 06:46:29;;;;;;;87.22;21.02;;;;;;;;;;6303701;22;20102;-84
2023/01/21 06:48:56;;;;;;;88.90;20.80;;;;;;;;;;6301097;22;20023;-82
2023/01/21 06:51:28;;;;;;;96.97;24.38;;;;;;;;;;6303734;22;20028;-83
2023/01/21 06:53:57;;;;;;;96.18;22.15;;;;;;;;;;6301404;22;20027;-83
2023/01/21 06:56:23;;;;;;;86.28;21.08;;;;;;;;;;6302674;22;20483;-83
2023/01/21 06:58:49;;;;;;;79.95;22.30;;;;;;;;;;6275543;22;20031;-83
2023/01/21 07:01:16;;;;;;;78.03;21.13;;;;;;;;;;6303851;22;20123;-83
2023/01/21 07:03:43;;;;;;;80.85;21.90;;;;;;;;;;6303775;22;20031;-83
2023/01/21 07:06:12;;;;;;;84.72;22.73;;;;;;;;;;6301801;22;20039;-83
2023/01/21 07:08:38;;;;;;;91.45;24.33;;;;;;;;;;6302896;22;20023;-83
2023/01/21 07:11:05;;;;;;;88.53;23.02;;;;;;;;;;6303598;22;20365;-83
2023/01/21 07:13:31;;;;;;;102.13;22.48;;;;;;;;;;6303285;22;20043;-83
2023/01/21 07:15:59;;;;;;;94.38;21.73;;;;;;;;;;6303050;22;20099;-83
2023/01/21 07:18:26;;;;;;;77.57;20.20;;;;;;;;;;6301086;22;20055;-83
2023/01/21 07:20:52;;;;;;;89.93;23.17;;;;;;;;;;6303456;22;20427;-83
2023/01/21 07:23:18;;;;;;;81.38;21.05;;;;;;;;;;6304048;22;20632;-86
2023/01/21 07:25:45;;;;;;;78.63;22.27;;;;;;;;;;6303489;22;20024;-87
2023/01/21 07:28:11;;;;;;;102.40;22.80;;;;;;;;;;6303389;22;20020;-87
2023/01/21 07:30:38;;;;;;;93.85;20.85;;;;;;;;;;6303529;22;20054;-86
2023/01/21 07:33:05;;;;;;;92.15;23.50;;;;;;;;;;6304286;22;20024;-86
2023/01/21 07:35:32;;;;;;;76.32;21.40;;;;;;;;;;6301813;22;20493;-85
2023/01/21 07:37:58;;;;;;;89.45;22.85;;;;;;;;;;6303344;22;20115;-85
2023/01/21 07:40:24;;;;;;;102.28;21.52;;;;;;;;;;6303423;22;20019;-86
2023/01/21 07:42:51;;;;;;;67.03;19.73;;;;;;;;;;6304117;22;20027;-86
2023/01/21 07:45:20;;;;;;;77.63;20.88;;;;;;;;;;6303486;22;20027;-86
2023/01/21 07:47:47;;;;;;;74.40;20.27;;;;;;;;;;6303410;22;20027;-85
2023/01/21 07:50:14;;;;;;;70.57;19.67;;;;;;;;;;6303323;22;20652;-86
2023/01/21 07:52:40;;;;;;;85.22;22.60;;;;;;;;;;6303904;22;20028;-86
2023/01/21 07:55:07;;;;;;;81.93;20.55;;;;;;;;;;6303766;22;20062;-85
2023/01/21 07:57:36;;;;;;;80.38;21.73;;;;;;;;;;6303698;22;20487;-86
2023/01/21 08:00:03;;;;;;;83.93;22.20;;;;;;;;;;6303987;22;20024;-86
2023/01/21 08:02:29;;;;;;;72.60;19.17;;;;;;;;;;6303634;22;20099;-86
2023/01/21 08:04:59;;;;;;;73.93;19.67;;;;;;;;;;6302998;22;20098;-86
2023/01/21 08:07:25;;;;;;;80.40;21.13;;;;;;;;;;6302973;22;20062;-86
2023/01/21 08:09:52;;;;;;;77.45;20.90;;;;;;;;;;6301919;22;20024;-85
2023/01/21 08:12:21;;;;;;;79.72;21.35;;;;;;;;;;6303066;22;20036;-86
2023/01/21 08:14:51;;;;;;;;;;;;;;;;;;6303838;22;20023;-86
2023/01/21 08:17:17;;;;;;;75.65;21.40;;;;;;;;;;6302098;22;46638;-87
2023/01/21 08:19:44;;;;;;;68.45;19.60;;;;;;;;;;6303243;22;20031;-85
2023/01/21 08:22:10;;;;;;;82.13;21.08;;;;;;;;;;6303729;22;20028;-85
2023/01/21 08:24:36;;;;;;;81.03;20.42;;;;;;;;;;6303231;22;20763;-85
2023/01/21 08:27:03;;;;;;;83.88;21.95;;;;;;;;;;6300702;22;20035;-86
2023/01/21 08:29:30;;;;;;;77.63;20.23;;;;;;;;;;6301385;22;20033;-87
2023/01/21 08:31:58;;;;;;;76.97;20.25;;;;;;;;;;6302094;22;20024;-86
2023/01/21 08:34:40;;;;;;;69.72;20.55;;;;;;;;;;6300859;22;20500;-86
2023/01/21 08:37:12;;;;;;;83.45;19.60;;;;;;;;;;6302548;22;20023;-85
2023/01/21 08:39:39;;;;;;;76.15;20.42;;;;;;;;;;6302576;22;20055;-86
2023/01/21 08:42:05;;;;;;;81.05;21.90;;;;;;;;;;6302532;22;20023;-85
2023/01/21 08:44:34;;;;;;;80.18;20.45;;;;;;;;;;6302267;22;20111;-85
2023/01/21 08:47:06;;;;;;;69.60;20.15;;;;;;;;;;6303321;22;20027;-85
2023/01/21 08:49:32;;;;;;;75.25;18.90;;;;;;;;;;6302603;22;20024;-85
2023/01/21 08:51:58;;;;;;;68.10;17.27;;;;;;;;;;6303259;22;20085;-85
2023/01/21 08:54:25;;;;;;;68.72;19.85;;;;;;;;;;6303080;22;20050;-85
2023/01/21 08:56:51;;;;;;;57.95;16.33;;;;;;;;;;6301112;22;20030;-85
2023/01/21 08:59:20;;;;;;;60.88;17.45;;;;;;;;;;6303791;22;20764;-85
2023/01/21 09:01:47;;;;;;;58.03;16.17;;;;;;;;;;6303053;22;20051;-85
2023/01/21 09:04:13;;;;;;;56.05;17.20;;;;;;;;;;6303316;22;20107;-84
2023/01/21 09:06:39;;;;;;;63.03;17.48;;;;;;;;;;6301502;22;20024;-85
2023/01/21 09:09:06;;;;;;;68.57;18.85;;;;;;;;;;6302056;22;20051;-85
2023/01/21 09:11:33;;;;;;;61.90;17.58;;;;;;;;;;6301148;22;20528;-85
2023/01/21 09:14:02;;;;;;;62.35;17.23;;;;;;;;;;6302934;22;20538;-85
2023/01/21 09:16:30;;;;;;;62.63;16.73;;;;;;;;;;6302550;22;20385;-85
2023/01/21 09:18:57;;;;;;;60.03;17.95;;;;;;;;;;6300915;22;20023;-85
2023/01/21 09:21:25;;;;;;;67.22;17.67;;;;;;;;;;6303307;22;20023;-85
2023/01/21 09:23:51;;;;;;;63.03;17.80;;;;;;;;;;6301440;22;20050;-85
2023/01/21 09:26:19;;;;;;;65.25;19.45;;;;;;;;;;6303321;22;20042;-84
2023/01/21 09:28:49;;;;;;;72.75;19.67;;;;;;;;;;6300918;22;20058;-84
2023/01/21 09:31:17;;;;;;;61.53;17.30;;;;;;;;;;6301161;22;20017;-85
2023/01/21 09:33:45;;;;;;;61.58;18.40;;;;;;;;;;6302294;22;20471;-84
2023/01/21 09:36:13;;;;;;;73.60;19.00;;;;;;;;;;6303536;22;20111;-85
2023/01/21 09:38:43;;;;;;;68.53;18.13;;;;;;;;;;6299975;22;20511;-84
2023/01/21 09:41:28;;;;;;;62.77;17.93;;;;;;;;;;6303914;22;20028;-86
2023/01/21 09:44:01;;;;;;;64.85;18.40;;;;;;;;;;6302542;22;20769;-84
2023/01/21 09:46:37;;;;;;;69.68;18.23;;;;;;;;;;6304479;22;20024;-85
2023/01/21 09:49:05;;;;;;;57.72;17.58;;;;;;;;;;6303410;22;20667;-84
2023/01/21 09:51:55;;;;;;;59.33;17.45;;;;;;;;;;6303280;22;20027;-84
2023/01/21 09:54:26;;;;;;;57.90;17.05;;;;;;;;;;6268420;22;20023;-84
2023/01/21 09:57:11;;;;;;;61.05;18.75;;;;;;;;;;6305118;22;20019;-85
2023/01/21 09:59:37;;;;;;;59.08;17.05;;;;;;;;;;6302228;22;20524;-84
2023/01/21 10:02:08;;;;;;;59.55;18.05;;;;;;;;;;6302226;22;20680;-84
2023/01/21 10:04:46;;;;;;;59.65;17.38;;;;;;;;;;6303773;22;20098;-84
2023/01/21 10:07:16;;;;;;;56.08;17.30;;;;;;;;;;6303906;22;20047;-84
2023/01/21 10:09:49;;;;;;;62.47;20.05;;;;;;;;;;6302898;22;20059;-85
2023/01/21 10:12:42;;;;;;;59.88;16.52;;;;;;;;;;6303936;22;20090;-84
2023/01/21 10:15:12;;;;;;;56.58;17.70;;;;;;;;;;6303788;22;20062;-85
2023/01/21 10:17:56;;;;;;;56.97;16.85;;;;;;;;;;6303669;22;20107;-84
2023/01/21 10:20:31;;;;;;;58.08;18.08;;;;;;;;;;6303236;22;20028;-84
2023/01/21 10:22:57;;;;;;;62.35;16.20;;;;;;;;;;6304014;22;20028;-84
2023/01/21 10:25:27;;;;;;;56.75;18.42;;;;;;;;;;6304365;22;20054;-83
2023/01/21 10:27:55;;;;;;;63.30;18.83;;;;;;;;;;6303618;22;20031;-84
2023/01/21 10:30:36;;;;;;;58.13;17.20;;;;;;;;;;6304009;22;20090;-83
2023/01/21 10:33:04;;;;;;;59.33;16.95;;;;;;;;;;6303440;22;20147;-83
2023/01/21 10:35:46;;;;;;;54.45;17.40;;;;;;;;;;6304010;22;20042;-84
2023/01/21 10:38:35;;;;;;;56.53;17.77;;;;;;;;;;6303549;22;20032;-84
2023/01/21 10:41:14;;;;;;;62.13;17.38;;;;;;;;;;6291398;22;20036;-83
2023/01/21 10:43:50;;;;;;;60.90;17.65;;;;;;;;;;6304167;22;20066;-83
2023/01/21 10:46:27;;;;;;;58.85;17.38;;;;;;;;;;6302644;22;20326;-83
2023/01/21 10:49:00;;;;;;;57.33;16.67;;;;;;;;;;6304185;22;20119;-83
2023/01/21 10:51:30;;;;;;;62.38;18.08;;;;;;;;;;6305059;22;21108;-83
2023/01/21 10:54:03;;;;;;;57.97;17.20;;;;;;;;;;6305629;22;20086;-84
2023/01/21 10:56:30;;;;;;;57.60;18.08;;;;;;;;;;6305889;22;20028;-83
2023/01/21 10:59:17;;;;;;;58.70;18.67;;;;;;;;;;6303800;22;20031;-84
2023/01/21 11:01:46;;;;;;;56.70;18.20;;;;;;;;;;6305284;22;20018;-83
2023/01/21 11:04:18;;;;;;;62.80;19.38;;;;;;;;;;6305749;22;20023;-83
2023/01/21 11:06:46;;;;;;;73.10;20.63;;;;;;;;;;6304272;22;20023;-83
2023/01/21 11:09:13;;;;;;;60.80;19.50;;;;;;;;;;6306349;22;20107;-83
2023/01/21 11:11:41;;;;;;;63.85;19.38;;;;;;;;;;6305500;22;20027;-83
2023/01/21 11:14:08;;;;;;;62.28;19.20;;;;;;;;;;6306435;22;20067;-83
2023/01/21 11:16:38;;;;;;;67.55;20.25;;;;;;;;;;6306920;22;20028;-83
2023/01/21 11:19:05;;;;;;;66.05;19.88;;;;;;;;;;6306396;22;20067;-83
2023/01/21 11:21:31;;;;;;;61.47;18.67;;;;;;;;;;6307210;22;20032;-83
2023/01/21 11:23:59;;;;;;;66.57;19.80;;;;;;;;;;6306042;22;20030;-83
2023/01/21 11:26:27;;;;;;;68.28;22.35;;;;;;;;;;6306306;22;20131;-83
2023/01/21 11:29:13;;;;;;;68.40;20.48;;;;;;;;;;6308279;22;20028;-83
2023/01/21 11:31:43;;;;;;;63.22;20.35;;;;;;;;;;6307619;22;20038;-83
2023/01/21 11:34:20;;;;;;;68.03;21.30;;;;;;;;;;6306999;22;20024;-83
2023/01/21 11:36:52;;;;;;;59.63;17.45;;;;;;;;;;6307767;22;20031;-83
2023/01/21 11:39:21;;;;;;;63.25;18.55;;;;;;;;;;6307648;22;20027;-83
2023/01/21 11:41:57;;;;;;;61.75;19.50;;;;;;;;;;6307858;22;20035;-83
2023/01/21 11:44:23;;;;;;;64.07;20.23;;;;;;;;;;6307564;22;20055;-83
2023/01/21 11:46:50;;;;;;;55.35;17.40;;;;;;;;;;6307321;22;20334;-83
2023/01/21 11:49:19;;;;;;;59.50;19.02;;;;;;;;;;6307707;22;20477;-83
2023/01/21 11:51:45;;;;;;;61.88;18.92;;;;;;;;;;6306240;22;20030;-83
2023/01/21 11:54:22;;;;;;;56.42;18.70;;;;;;;;;;6305288;22;20030;-83
2023/01/21 11:56:57;;;;;;;50.55;18.00;;;;;;;;;;6307665;22;20030;-83
2023/01/21 11:59:42;;;;;;;49.78;17.90;;;;;;;;;;6305514;22;20023;-83
2023/01/21 12:02:14;;;;;;;56.83;18.95;;;;;;;;;;6305153;22;20059;-83
2023/01/21 12:04:46;;;;;;;51.42;17.73;;;;;;;;;;6306604;22;20538;-83
2023/01/21 12:07:24;;;;;;;58.13;16.50;;;;;;;;;;6306626;22;20020;-83
2023/01/21 12:09:57;;;;;;;51.08;17.60;;;;;;;;;;6306739;22;20483;-83
2023/01/21 12:12:31;;;;;;;55.70;17.85;;;;;;;;;;6306481;22;20019;-83
2023/01/21 12:15:01;;;;;;;48.05;17.25;;;;;;;;;;6304463;22;20020;-83
2023/01/21 12:17:28;;;;;;;49.70;16.15;;;;;;;;;;6304515;22;20559;-83
2023/01/21 12:20:10;;;;;;;48.05;16.25;;;;;;;;;;6306411;22;20712;-83
2023/01/21 12:22:55;;;;;;;43.65;16.02;;;;;;;;;;6307701;22;20028;-83
2023/01/21 12:25:29;;;;;;;39.50;14.10;;;;;;;;;;6304788;22;20030;-83
2023/01/21 12:27:59;;;;;;;43.55;14.35;;;;;;;;;;6306150;22;20028;-83
2023/01/21 12:30:38;;;;;;;44.03;16.02;;;;;;;;;;6305309;22;20031;-83
2023/01/21 12:33:10;;;;;;;41.40;15.30;;;;;;;;;;6305121;22;20368;-83
2023/01/21 12:35:39;;;;;;;47.10;14.75;;;;;;;;;;6304963;22;20103;-83
2023/01/21 12:38:09;;;;;;;42.05;15.18;;;;;;;;;;6306623;22;20763;-83
2023/01/21 12:40:39;;;;;;;51.25;17.80;;;;;;;;;;6306509;22;20043;-83
2023/01/21 12:43:14;;;;;;;52.70;17.08;;;;;;;;;;6306425;22;20405;-83
2023/01/21 12:45:55;;;;;;;51.03;17.25;;;;;;;;;;6307687;22;20481;-83
2023/01/21 12:48:30;;;;;;;41.40;15.23;;;;;;;;;;6304607;22;20026;-83
2023/01/21 12:51:03;;;;;;;45.85;16.15;;;;;;;;;;6304940;22;20050;-84
2023/01/21 12:53:48;;;;;;;43.75;14.57;;;;;;;;;;6306713;22;20873;-83
2023/01/21 12:56:25;;;;;;;42.40;15.10;;;;;;;;;;6306979;22;20055;-83
2023/01/21 12:58:51;;;;;;;44.33;15.65;;;;;;;;;;6306577;22;20027;-84
2023/01/21 13:01:30;;;;;;;40.33;14.73;;;;;;;;;;6307294;22;20073;-84
2023/01/21 13:04:01;;;;;;;40.10;14.07;;;;;;;;;;6306735;22;20027;-83
2023/01/21 13:06:31;;;;;;;43.67;16.42;;;;;;;;;;6305729;22;20446;-83
2023/01/21 13:09:20;;;;;;;44.95;14.93;;;;;;;;;;6305014;22;20081;-83
2023/01/21 13:11:46;;;;;;;47.10;14.80;;;;;;;;;;6305127;22;20032;-84
2023/01/21 13:14:20;;;;;;;42.85;15.48;;;;;;;;;;6304767;22;20879;-84
2023/01/21 13:16:52;;;;;;;46.20;14.85;;;;;;;;;;6304285;22;20051;-84
2023/01/21 13:19:18;;;;;;;44.90;14.98;;;;;;;;;;6305046;22;20028;-84
2023/01/21 13:22:08;;;;;;;47.63;16.10;;;;;;;;;;6304274;22;20063;-84
2023/01/21 13:25:00;;;;;;;44.75;14.40;;;;;;;;;;6292170;22;20024;-83
2023/01/21 13:27:31;;;;;;;43.65;14.05;;;;;;;;;;6273332;22;20035;-84
2023/01/21 13:30:05;;;;;;;44.70;14.65;;;;;;;;;;6303698;22;20019;-84
2023/01/21 13:32:34;;;;;;;42.40;14.65;;;;;;;;;;6304606;22;20552;-84
2023/01/21 13:35:15;;;;;;;49.55;16.13;;;;;;;;;;6305015;22;20421;-84
2023/01/21 13:37:41;;;;;;;;;;;;;;;;;;6305268;22;20485;-84
2023/01/21 13:40:26;;;;;;;48.13;15.38;;;;;;;;;;6303446;22;45711;-83
2023/01/21 13:42:56;;;;;;;48.33;15.20;;;;;;;;;;6304133;22;20123;-84
2023/01/21 13:45:28;;;;;;;48.00;14.18;;;;;;;;;;6305438;22;20139;-83
2023/01/21 13:47:55;;;;;;;51.55;15.52;;;;;;;;;;6305071;22;20032;-84
2023/01/21 13:50:27;;;;;;;42.38;13.95;;;;;;;;;;6306340;22;20019;-84
2023/01/21 13:53:12;;;;;;;48.88;14.77;;;;;;;;;;6305735;22;20035;-84
2023/01/21 13:55:55;;;;;;;43.25;15.02;;;;;;;;;;6305144;22;20110;-84
2023/01/21 13:58:29;;;;;;;48.65;15.18;;;;;;;;;;6304564;22;20027;-84
2023/01/21 14:00:58;;;;;;;45.45;15.60;;;;;;;;;;6304512;22;20071;-84
2023/01/21 14:03:27;;;;;;;44.35;15.63;;;;;;;;;;6305106;22;20046;-84
2023/01/21 14:06:00;;;;;;;44.10;14.85;;;;;;;;;;6306591;22;20066;-84
2023/01/21 14:08:35;;;;;;;43.88;16.70;;;;;;;;;;6306233;22;20094;-84
2023/01/21 14:11:02;;;;;;;49.47;14.98;;;;;;;;;;6305599;22;20098;-84
2023/01/21 14:13:28;;;;;;;52.38;15.52;;;;;;;;;;6307352;22;20120;-84
2023/01/21 14:16:12;;;;;;;48.72;15.65;;;;;;;;;;6308334;22;20158;-84
2023/01/21 14:18:44;;;;;;;44.83;15.18;;;;;;;;;;6305123;22;20465;-84
2023/01/21 14:21:19;;;;;;;50.45;15.48;;;;;;;;;;6306009;22;20041;-84
2023/01/21 14:23:53;;;;;;;51.08;16.55;;;;;;;;;;6307112;22;20032;-84
2023/01/21 14:26:26;;;;;;;46.05;16.80;;;;;;;;;;6306935;22;20058;-84
2023/01/21 14:29:05;;;;;;;51.63;15.98;;;;;;;;;;6306464;22;20028;-83
2023/01/21 14:31:33;;;;;;;40.20;14.23;;;;;;;;;;6306680;22;20056;-84
2023/01/21 14:34:20;;;;;;;47.47;14.95;;;;;;;;;;6306639;22;20027;-83
2023/01/21 14:37:05;;;;;;;47.25;15.95;;;;;;;;;;6306452;22;20102;-84